Strona główna
METAR-TAF:

METAR-TAF

Lotnisko :

Port lotniczy Tunis

Tunis, Tunezja

Szerokość geograficzna: 36-50N, Długość geograficzna: 010-14E, wysokość: 3 m

Aktualna obserwacja pogody

Raport powstał 38 minut temu, godzina 16:00 UTC
Wiatr 7 kt od zachód
Temperatura 16°C
Wilgotność 59%
Ciśnienie 1020 hPa
Widzialność 10 km lub więcej
Rozproszone chmury na wysokości 3300 ft

METAR: DTTA 111600Z 28007KT 9999 SCT033 16/08 Q1020 NOSIG

czas: 17:38 (16:38 UTC)

Prognoza

Raport powstał 5 godziny i 38 minut temu, godzina 11:00 UTC
Prognoza ważna od 11 godzina 12 UTC do 12 godzina 12 UTC
Wiatr 15 kt od zachodnio-północny zachód w porywach dochodzący do 27 kt
Widzialność 10 km lub więcej
Rozproszone chmury na wysokości 2300 ft
Stopniowe zmiany
od 11 godzina 17 UTC do 11 godzina 19 UTC
Wiatr 10 kt od południowy zachód

TAF: DTTA 111100Z 1112/1212 29015G27KT 9999 SCT023 BECMG 1117/1119 23010KT

Obserwacja i prognoza pogody dla ponad 4000 lotnisk (raport METAR i TAF).

Dostępne stacje oznaczono żółtymi i czerwonymi punktami na mapie.

Najedź kursorem aby zobaczyć nazwę stacji.

Kliknij aby zobaczyć obserwacje i prognozy pogody.

Aby zmienić mapę: kliknij na zielony przycisk z czarnym krzyżykiem, aby powiększyć; na zielony przycisk z myślnikiem, aby pomniejszyć; na zielone strzałki, aby przejść do map sąsiednich.


METAR-TAF: